sensor_id;sensor_type;location;lat;lon;timestamp;P1;durP1;ratioP1;P2;durP2;ratioP2
63926;SDS011;50103;47.960;21.712;2022-10-31T06:01:16;44.00;;;22.20;;
63926;SDS011;50103;47.960;21.712;2022-10-31T06:03:42;46.60;;;23.40;;
63926;SDS011;50103;47.960;21.712;2022-10-31T06:06:07;45.40;;;22.90;;
63926;SDS011;50103;47.960;21.712;2022-10-31T06:08:32;46.20;;;23.60;;
63926;SDS011;50103;47.960;21.712;2022-10-31T06:10:58;45.00;;;22.60;;
63926;SDS011;50103;47.960;21.712;2022-10-31T06:13:23;47.00;;;22.40;;
63926;SDS011;50103;47.960;21.712;2022-10-31T06:15:49;45.50;;;23.00;;
63926;SDS011;50103;47.960;21.712;2022-10-31T06:18:17;46.80;;;23.40;;
63926;SDS011;50103;47.960;21.712;2022-10-31T06:20:43;45.70;;;23.20;;
63926;SDS011;50103;47.960;21.712;2022-10-31T06:23:08;49.30;;;24.00;;
63926;SDS011;50103;47.960;21.712;2022-10-31T06:25:34;47.10;;;23.10;;
63926;SDS011;50103;47.960;21.712;2022-10-31T06:28:00;45.00;;;21.70;;
63926;SDS011;50103;47.960;21.712;2022-10-31T06:30:25;44.30;;;22.10;;
63926;SDS011;50103;47.960;21.712;2022-10-31T06:32:51;47.90;;;24.10;;
63926;SDS011;50103;47.960;21.712;2022-10-31T06:35:16;47.70;;;24.70;;
63926;SDS011;50103;47.960;21.712;2022-10-31T06:37:42;44.10;;;22.20;;
63926;SDS011;50103;47.960;21.712;2022-10-31T06:42:40;40.40;;;19.10;;
63926;SDS011;50103;47.960;21.712;2022-10-31T06:45:06;43.90;;;21.50;;
63926;SDS011;50103;47.960;21.712;2022-10-31T06:47:32;41.00;;;20.40;;
63926;SDS011;50103;47.960;21.712;2022-10-31T06:49:57;40.80;;;19.90;;
63926;SDS011;50103;47.960;21.712;2022-10-31T06:52:22;44.80;;;23.10;;
63926;SDS011;50103;47.960;21.712;2022-10-31T06:54:48;41.30;;;19.90;;
63926;SDS011;50103;47.960;21.712;2022-10-31T06:57:14;41.20;;;20.20;;
63926;SDS011;50103;47.960;21.712;2022-10-31T06:59:39;40.80;;;20.40;;
63926;SDS011;50103;47.960;21.712;2022-10-31T07:02:05;41.70;;;20.60;;
63926;SDS011;50103;47.960;21.712;2022-10-31T07:04:30;42.30;;;20.20;;
63926;SDS011;50103;47.960;21.712;2022-10-31T07:06:56;43.90;;;22.10;;
63926;SDS011;50103;47.960;21.712;2022-10-31T07:09:21;43.50;;;21.40;;
63926;SDS011;50103;47.960;21.712;2022-10-31T07:11:47;41.50;;;21.40;;
63926;SDS011;50103;47.960;21.712;2022-10-31T07:14:12;42.60;;;19.80;;
63926;SDS011;50103;47.960;21.712;2022-10-31T07:16:38;41.00;;;20.10;;
63926;SDS011;50103;47.960;21.712;2022-10-31T07:19:03;40.10;;;21.30;;
63926;SDS011;50103;47.960;21.712;2022-10-31T07:21:28;42.90;;;20.90;;
63926;SDS011;50103;47.960;21.712;2022-10-31T07:23:54;41.20;;;21.90;;
63926;SDS011;50103;47.960;21.712;2022-10-31T07:26:19;40.30;;;19.70;;
63926;SDS011;50103;47.960;21.712;2022-10-31T07:28:45;38.60;;;19.20;;
63926;SDS011;50103;47.960;21.712;2022-10-31T07:31:12;38.90;;;18.20;;
63926;SDS011;50103;47.960;21.712;2022-10-31T07:33:37;37.30;;;17.10;;
63926;SDS011;50103;47.960;21.712;2022-10-31T07:36:03;38.40;;;18.30;;
63926;SDS011;50103;47.960;21.712;2022-10-31T07:38:29;39.50;;;18.70;;
63926;SDS011;50103;47.960;21.712;2022-10-31T07:40:54;39.80;;;19.40;;
63926;SDS011;50103;47.960;21.712;2022-10-31T07:43:20;41.20;;;19.30;;
63926;SDS011;50103;47.960;21.712;2022-10-31T07:45:52;43.00;;;20.40;;
63926;SDS011;50103;47.960;21.712;2022-10-31T07:48:19;40.90;;;20.30;;
63926;SDS011;50103;47.960;21.712;2022-10-31T07:50:45;38.10;;;18.40;;
63926;SDS011;50103;47.960;21.712;2022-10-31T07:53:11;42.00;;;20.00;;
63926;SDS011;50103;47.960;21.712;2022-10-31T07:55:38;40.50;;;18.10;;
63926;SDS011;50103;47.960;21.712;2022-10-31T07:58:08;36.80;;;18.20;;
63926;SDS011;50103;47.960;21.712;2022-10-31T08:00:36;39.60;;;18.60;;
63926;SDS011;50103;47.960;21.712;2022-10-31T08:03:10;38.40;;;19.40;;
63926;SDS011;50103;47.960;21.712;2022-10-31T08:05:37;38.60;;;19.10;;
63926;SDS011;50103;47.960;21.712;2022-10-31T08:08:05;38.90;;;18.70;;
63926;SDS011;50103;47.960;21.712;2022-10-31T08:10:31;41.60;;;20.20;;
63926;SDS011;50103;47.960;21.712;2022-10-31T08:12:58;40.40;;;19.90;;
63926;SDS011;50103;47.960;21.712;2022-10-31T08:15:25;38.70;;;18.30;;
63926;SDS011;50103;47.960;21.712;2022-10-31T08:17:51;39.60;;;18.00;;
63926;SDS011;50103;47.960;21.712;2022-10-31T08:20:17;38.80;;;18.30;;
63926;SDS011;50103;47.960;21.712;2022-10-31T08:22:42;38.30;;;18.00;;
63926;SDS011;50103;47.960;21.712;2022-10-31T08:25:08;42.20;;;20.40;;
63926;SDS011;50103;47.960;21.712;2022-10-31T08:27:33;41.30;;;18.40;;
63926;SDS011;50103;47.960;21.712;2022-10-31T08:29:59;41.10;;;18.80;;
63926;SDS011;50103;47.960;21.712;2022-10-31T08:32:25;39.50;;;18.60;;
63926;SDS011;50103;47.960;21.712;2022-10-31T08:34:50;38.10;;;18.40;;
63926;SDS011;50103;47.960;21.712;2022-10-31T08:37:16;38.20;;;18.10;;
63926;SDS011;50103;47.960;21.712;2022-10-31T08:39:47;38.50;;;18.90;;
63926;SDS011;50103;47.960;21.712;2022-10-31T08:42:13;37.00;;;17.20;;
63926;SDS011;50103;47.960;21.712;2022-10-31T08:44:39;38.80;;;17.90;;
63926;SDS011;50103;47.960;21.712;2022-10-31T08:47:04;37.40;;;18.40;;
63926;SDS011;50103;47.960;21.712;2022-10-31T08:49:30;37.90;;;17.70;;
63926;SDS011;50103;47.960;21.712;2022-10-31T08:51:55;39.50;;;19.70;;
63926;SDS011;50103;47.960;21.712;2022-10-31T08:54:21;36.60;;;18.00;;
63926;SDS011;50103;47.960;21.712;2022-10-31T08:56:47;38.90;;;17.50;;
63926;SDS011;50103;47.960;21.712;2022-10-31T08:59:14;37.10;;;17.30;;
63926;SDS011;50103;47.960;21.712;2022-10-31T09:01:39;33.80;;;16.40;;
63926;SDS011;50103;47.960;21.712;2022-10-31T09:04:04;38.20;;;19.00;;
63926;SDS011;50103;47.960;21.712;2022-10-31T09:06:30;35.60;;;17.80;;
63926;SDS011;50103;47.960;21.712;2022-10-31T09:08:55;34.70;;;16.10;;
63926;SDS011;50103;47.960;21.712;2022-10-31T09:11:21;34.80;;;16.10;;
63926;SDS011;50103;47.960;21.712;2022-10-31T09:13:46;38.00;;;16.70;;
63926;SDS011;50103;47.960;21.712;2022-10-31T09:16:12;34.90;;;16.20;;
63926;SDS011;50103;47.960;21.712;2022-10-31T09:18:37;34.50;;;15.40;;
63926;SDS011;50103;47.960;21.712;2022-10-31T09:21:03;32.50;;;14.90;;
63926;SDS011;50103;47.960;21.712;2022-10-31T09:23:28;33.30;;;15.30;;
63926;SDS011;50103;47.960;21.712;2022-10-31T09:25:54;33.80;;;15.10;;
63926;SDS011;50103;47.960;21.712;2022-10-31T09:28:23;33.60;;;16.10;;
63926;SDS011;50103;47.960;21.712;2022-10-31T09:30:52;33.90;;;15.20;;
63926;SDS011;50103;47.960;21.712;2022-10-31T09:33:18;33.00;;;15.70;;
63926;SDS011;50103;47.960;21.712;2022-10-31T09:35:45;34.10;;;15.00;;
63926;SDS011;50103;47.960;21.712;2022-10-31T09:38:14;31.20;;;14.20;;
63926;SDS011;50103;47.960;21.712;2022-10-31T09:40:43;28.80;;;13.20;;
63926;SDS011;50103;47.960;21.712;2022-10-31T09:43:15;31.20;;;14.80;;
63926;SDS011;50103;47.960;21.712;2022-10-31T09:49:24;31.40;;;13.60;;
63926;SDS011;50103;47.960;21.712;2022-10-31T09:51:55;32.90;;;14.90;;
63926;SDS011;50103;47.960;21.712;2022-10-31T09:56:57;31.20;;;13.10;;
63926;SDS011;50103;47.960;21.712;2022-10-31T09:59:26;32.30;;;13.20;;
63926;SDS011;50103;47.960;21.712;2022-10-31T10:02:03;33.60;;;15.10;;
63926;SDS011;50103;47.960;21.712;2022-10-31T10:04:42;31.50;;;13.80;;
63926;SDS011;50103;47.960;21.712;2022-10-31T10:07:25;31.70;;;13.90;;
63926;SDS011;50103;47.960;21.712;2022-10-31T10:09:59;32.90;;;14.00;;
63926;SDS011;50103;47.960;21.712;2022-10-31T10:18:38;32.80;;;14.70;;
63926;SDS011;50103;47.960;21.712;2022-10-31T10:23:51;33.70;;;14.90;;
63926;SDS011;50103;47.960;21.712;2022-10-31T10:26:30;31.30;;;14.10;;
63926;SDS011;50103;47.960;21.712;2022-10-31T10:29:02;31.40;;;13.90;;
63926;SDS011;50103;47.960;21.712;2022-10-31T10:31:48;28.30;;;13.00;;
63926;SDS011;50103;47.960;21.712;2022-10-31T10:39:49;30.00;;;13.80;;
63926;SDS011;50103;47.960;21.712;2022-10-31T10:42:20;30.80;;;14.10;;
63926;SDS011;50103;47.960;21.712;2022-10-31T10:45:16;30.10;;;13.50;;
63926;SDS011;50103;47.960;21.712;2022-10-31T10:48:06;29.50;;;13.20;;
63926;SDS011;50103;47.960;21.712;2022-10-31T10:50:41;30.90;;;14.20;;
63926;SDS011;50103;47.960;21.712;2022-10-31T10:53:22;30.70;;;13.90;;
63926;SDS011;50103;47.960;21.712;2022-10-31T10:58:56;29.70;;;13.00;;
63926;SDS011;50103;47.960;21.712;2022-10-31T11:01:22;29.30;;;12.70;;
63926;SDS011;50103;47.960;21.712;2022-10-31T11:03:48;28.20;;;12.70;;
63926;SDS011;50103;47.960;21.712;2022-10-31T11:06:18;32.50;;;13.80;;
63926;SDS011;50103;47.960;21.712;2022-10-31T11:08:50;29.10;;;12.60;;
63926;SDS011;50103;47.960;21.712;2022-10-31T11:13:42;28.80;;;12.60;;
63926;SDS011;50103;47.960;21.712;2022-10-31T11:16:15;29.10;;;12.10;;
63926;SDS011;50103;47.960;21.712;2022-10-31T11:18:51;29.60;;;13.00;;
63926;SDS011;50103;47.960;21.712;2022-10-31T11:21:23;28.80;;;12.70;;
63926;SDS011;50103;47.960;21.712;2022-10-31T11:26:36;31.30;;;13.60;;
63926;SDS011;50103;47.960;21.712;2022-10-31T11:29:03;27.80;;;11.90;;
63926;SDS011;50103;47.960;21.712;2022-10-31T11:31:30;28.30;;;12.40;;
63926;SDS011;50103;47.960;21.712;2022-10-31T11:34:03;28.80;;;12.20;;
63926;SDS011;50103;47.960;21.712;2022-10-31T11:36:32;31.20;;;11.50;;
63926;SDS011;50103;47.960;21.712;2022-10-31T11:39:02;27.50;;;11.50;;
63926;SDS011;50103;47.960;21.712;2022-10-31T11:41:36;28.20;;;11.70;;
63926;SDS011;50103;47.960;21.712;2022-10-31T11:46:51;27.40;;;11.50;;
63926;SDS011;50103;47.960;21.712;2022-10-31T11:52:04;28.00;;;12.40;;
63926;SDS011;50103;47.960;21.712;2022-10-31T11:54:44;29.30;;;12.70;;
63926;SDS011;50103;47.960;21.712;2022-10-31T11:59:58;27.00;;;11.30;;
63926;SDS011;50103;47.960;21.712;2022-10-31T12:02:25;28.50;;;12.40;;
63926;SDS011;50103;47.960;21.712;2022-10-31T12:07:28;28.20;;;12.10;;
63926;SDS011;50103;47.960;21.712;2022-10-31T12:09:54;28.20;;;12.40;;
63926;SDS011;50103;47.960;21.712;2022-10-31T12:17:40;28.50;;;12.40;;
63926;SDS011;50103;47.960;21.712;2022-10-31T12:20:30;28.90;;;12.60;;
63926;SDS011;50103;47.960;21.712;2022-10-31T12:24:06;27.90;;;11.70;;
63926;SDS011;50103;47.960;21.712;2022-10-31T12:26:37;29.60;;;12.90;;
63926;SDS011;50103;47.960;21.712;2022-10-31T12:32:46;27.90;;;12.60;;
63926;SDS011;50103;47.960;21.712;2022-10-31T12:38:06;30.50;;;14.10;;
63926;SDS011;50103;47.960;21.712;2022-10-31T12:43:46;27.70;;;13.40;;
63926;SDS011;50103;47.960;21.712;2022-10-31T12:46:32;29.50;;;13.80;;
63926;SDS011;50103;47.960;21.712;2022-10-31T12:58:07;31.50;;;14.20;;
63926;SDS011;50103;47.960;21.712;2022-10-31T13:00:38;31.90;;;13.70;;
63926;SDS011;50103;47.960;21.712;2022-10-31T13:03:21;32.70;;;15.20;;
63926;SDS011;50103;47.960;21.712;2022-10-31T13:05:49;32.70;;;15.30;;
63926;SDS011;50103;47.960;21.712;2022-10-31T13:08:24;31.90;;;14.90;;
63926;SDS011;50103;47.960;21.712;2022-10-31T13:11:07;33.20;;;15.90;;
63926;SDS011;50103;47.960;21.712;2022-10-31T13:13:39;33.50;;;15.50;;
63926;SDS011;50103;47.960;21.712;2022-10-31T13:16:29;34.30;;;15.60;;
63926;SDS011;50103;47.960;21.712;2022-10-31T13:19:20;31.40;;;15.10;;
63926;SDS011;50103;47.960;21.712;2022-10-31T13:21:55;33.90;;;14.30;;
63926;SDS011;50103;47.960;21.712;2022-10-31T13:27:34;32.00;;;15.20;;
63926;SDS011;50103;47.960;21.712;2022-10-31T13:30:14;34.00;;;16.00;;
63926;SDS011;50103;47.960;21.712;2022-10-31T13:33:03;31.20;;;14.80;;
63926;SDS011;50103;47.960;21.712;2022-10-31T13:35:42;34.30;;;15.80;;
63926;SDS011;50103;47.960;21.712;2022-10-31T13:40:54;35.40;;;16.00;;
63926;SDS011;50103;47.960;21.712;2022-10-31T13:43:30;34.30;;;15.60;;
63926;SDS011;50103;47.960;21.712;2022-10-31T13:46:24;35.50;;;16.20;;
63926;SDS011;50103;47.960;21.712;2022-10-31T13:48:51;32.40;;;15.70;;
63926;SDS011;50103;47.960;21.712;2022-10-31T13:51:28;32.10;;;15.20;;
63926;SDS011;50103;47.960;21.712;2022-10-31T13:53:56;32.70;;;13.90;;
63926;SDS011;50103;47.960;21.712;2022-10-31T13:56:25;33.10;;;14.40;;
63926;SDS011;50103;47.960;21.712;2022-10-31T14:01:32;31.60;;;13.40;;
63926;SDS011;50103;47.960;21.712;2022-10-31T14:04:13;33.30;;;15.10;;
63926;SDS011;50103;47.960;21.712;2022-10-31T14:11:57;33.50;;;14.80;;
63926;SDS011;50103;47.960;21.712;2022-10-31T14:14:29;31.90;;;15.10;;
63926;SDS011;50103;47.960;21.712;2022-10-31T14:17:00;34.20;;;15.50;;
63926;SDS011;50103;47.960;21.712;2022-10-31T14:19:27;33.40;;;15.30;;
63926;SDS011;50103;47.960;21.712;2022-10-31T14:21:55;32.60;;;14.70;;
63926;SDS011;50103;47.960;21.712;2022-10-31T14:26:54;30.70;;;12.90;;
63926;SDS011;50103;47.960;21.712;2022-10-31T14:29:30;33.00;;;14.30;;
63926;SDS011;50103;47.960;21.712;2022-10-31T14:34:25;32.20;;;15.10;;
63926;SDS011;50103;47.960;21.712;2022-10-31T14:39:49;34.70;;;15.90;;
63926;SDS011;50103;47.960;21.712;2022-10-31T14:55:57;40.40;;;20.30;;
63926;SDS011;50103;47.960;21.712;2022-10-31T15:01:23;37.10;;;19.50;;
63926;SDS011;50103;47.960;21.712;2022-10-31T15:03:53;40.30;;;20.00;;
63926;SDS011;50103;47.960;21.712;2022-10-31T15:06:26;37.70;;;18.40;;
63926;SDS011;50103;47.960;21.712;2022-10-31T15:08:55;42.30;;;18.60;;
63926;SDS011;50103;47.960;21.712;2022-10-31T15:11:24;38.30;;;18.90;;
63926;SDS011;50103;47.960;21.712;2022-10-31T15:13:54;41.70;;;21.80;;
63926;SDS011;50103;47.960;21.712;2022-10-31T15:16:34;38.80;;;18.70;;
63926;SDS011;50103;47.960;21.712;2022-10-31T15:19:10;43.60;;;21.50;;
63926;SDS011;50103;47.960;21.712;2022-10-31T15:24:12;40.40;;;19.20;;
63926;SDS011;50103;47.960;21.712;2022-10-31T15:26:48;38.40;;;18.90;;
63926;SDS011;50103;47.960;21.712;2022-10-31T15:29:18;38.70;;;19.00;;
63926;SDS011;50103;47.960;21.712;2022-10-31T15:32:01;45.40;;;23.40;;
63926;SDS011;50103;47.960;21.712;2022-10-31T15:34:43;49.60;;;25.80;;
63926;SDS011;50103;47.960;21.712;2022-10-31T15:37:14;44.30;;;23.10;;
63926;SDS011;50103;47.960;21.712;2022-10-31T15:39:41;42.60;;;21.00;;
63926;SDS011;50103;47.960;21.712;2022-10-31T15:45:05;39.20;;;17.70;;
63926;SDS011;50103;47.960;21.712;2022-10-31T15:47:48;37.90;;;19.10;;
63926;SDS011;50103;47.960;21.712;2022-10-31T15:50:19;42.30;;;19.70;;
63926;SDS011;50103;47.960;21.712;2022-10-31T15:52:51;43.20;;;20.10;;
63926;SDS011;50103;47.960;21.712;2022-10-31T15:55:22;38.80;;;18.70;;
63926;SDS011;50103;47.960;21.712;2022-10-31T15:57:52;38.50;;;18.60;;
63926;SDS011;50103;47.960;21.712;2022-10-31T16:00:34;38.40;;;18.20;;
63926;SDS011;50103;47.960;21.712;2022-10-31T16:05:35;39.60;;;17.20;;
63926;SDS011;50103;47.960;21.712;2022-10-31T16:10:32;41.70;;;18.60;;
63926;SDS011;50103;47.960;21.712;2022-10-31T16:13:00;38.50;;;18.40;;
63926;SDS011;50103;47.960;21.712;2022-10-31T16:15:27;39.80;;;19.00;;
63926;SDS011;50103;47.960;21.712;2022-10-31T16:17:53;40.30;;;18.50;;
63926;SDS011;50103;47.960;21.712;2022-10-31T16:20:22;38.40;;;18.10;;
63926;SDS011;50103;47.960;21.712;2022-10-31T16:22:51;38.80;;;18.70;;
63926;SDS011;50103;47.960;21.712;2022-10-31T16:25:26;40.70;;;18.90;;
63926;SDS011;50103;47.960;21.712;2022-10-31T16:28:23;36.70;;;17.70;;
63926;SDS011;50103;47.960;21.712;2022-10-31T16:30:50;39.60;;;18.30;;
63926;SDS011;50103;47.960;21.712;2022-10-31T16:33:22;41.80;;;19.30;;
63926;SDS011;50103;47.960;21.712;2022-10-31T16:35:55;41.10;;;18.90;;
63926;SDS011;50103;47.960;21.712;2022-10-31T16:38:21;39.10;;;19.30;;
63926;SDS011;50103;47.960;21.712;2022-10-31T16:40:47;40.90;;;20.10;;
63926;SDS011;50103;47.960;21.712;2022-10-31T16:43:16;40.90;;;19.80;;
63926;SDS011;50103;47.960;21.712;2022-10-31T16:45:47;42.70;;;19.80;;
63926;SDS011;50103;47.960;21.712;2022-10-31T16:48:15;41.40;;;19.20;;
63926;SDS011;50103;47.960;21.712;2022-10-31T16:50:44;37.70;;;17.70;;
63926;SDS011;50103;47.960;21.712;2022-10-31T16:53:11;40.40;;;18.40;;
63926;SDS011;50103;47.960;21.712;2022-10-31T16:56:02;44.70;;;20.80;;
63926;SDS011;50103;47.960;21.712;2022-10-31T16:58:28;47.50;;;23.00;;
63926;SDS011;50103;47.960;21.712;2022-10-31T17:00:57;40.80;;;19.90;;
63926;SDS011;50103;47.960;21.712;2022-10-31T17:03:24;48.40;;;23.30;;
63926;SDS011;50103;47.960;21.712;2022-10-31T17:05:50;44.70;;;21.30;;
63926;SDS011;50103;47.960;21.712;2022-10-31T17:08:16;44.10;;;20.70;;
63926;SDS011;50103;47.960;21.712;2022-10-31T17:10:42;49.50;;;24.20;;
63926;SDS011;50103;47.960;21.712;2022-10-31T17:13:11;49.80;;;23.10;;
63926;SDS011;50103;47.960;21.712;2022-10-31T17:15:42;41.30;;;20.30;;
63926;SDS011;50103;47.960;21.712;2022-10-31T17:20:41;41.40;;;19.90;;
63926;SDS011;50103;47.960;21.712;2022-10-31T17:23:09;42.60;;;21.50;;
63926;SDS011;50103;47.960;21.712;2022-10-31T17:25:38;43.10;;;21.20;;
63926;SDS011;50103;47.960;21.712;2022-10-31T17:28:04;39.90;;;20.50;;
63926;SDS011;50103;47.960;21.712;2022-10-31T17:30:30;43.20;;;21.50;;
63926;SDS011;50103;47.960;21.712;2022-10-31T17:32:59;41.30;;;21.00;;
63926;SDS011;50103;47.960;21.712;2022-10-31T17:35:25;47.20;;;22.70;;
63926;SDS011;50103;47.960;21.712;2022-10-31T17:37:51;45.60;;;22.70;;
63926;SDS011;50103;47.960;21.712;2022-10-31T17:40:18;49.50;;;23.60;;
63926;SDS011;50103;47.960;21.712;2022-10-31T17:42:50;46.70;;;22.70;;
63926;SDS011;50103;47.960;21.712;2022-10-31T17:45:17;44.20;;;22.10;;
63926;SDS011;50103;47.960;21.712;2022-10-31T17:47:45;45.70;;;23.20;;
63926;SDS011;50103;47.960;21.712;2022-10-31T17:50:16;48.00;;;23.80;;
63926;SDS011;50103;47.960;21.712;2022-10-31T17:52:43;48.50;;;24.80;;
63926;SDS011;50103;47.960;21.712;2022-10-31T17:55:10;48.40;;;24.50;;
63926;SDS011;50103;47.960;21.712;2022-10-31T17:57:36;50.20;;;24.50;;
63926;SDS011;50103;47.960;21.712;2022-10-31T18:00:03;50.20;;;25.90;;
63926;SDS011;50103;47.960;21.712;2022-10-31T18:02:31;49.20;;;25.00;;
63926;SDS011;50103;47.960;21.712;2022-10-31T18:04:57;52.60;;;26.50;;
63926;SDS011;50103;47.960;21.712;2022-10-31T18:07:23;49.90;;;25.10;;
63926;SDS011;50103;47.960;21.712;2022-10-31T18:09:49;47.60;;;25.40;;
63926;SDS011;50103;47.960;21.712;2022-10-31T18:12:16;53.10;;;26.90;;
63926;SDS011;50103;47.960;21.712;2022-10-31T18:14:42;53.80;;;28.70;;
63926;SDS011;50103;47.960;21.712;2022-10-31T18:17:08;53.70;;;27.30;;
63926;SDS011;50103;47.960;21.712;2022-10-31T18:19:34;51.40;;;27.20;;
63926;SDS011;50103;47.960;21.712;2022-10-31T18:21:59;47.90;;;25.20;;
63926;SDS011;50103;47.960;21.712;2022-10-31T18:24:25;49.50;;;23.50;;
63926;SDS011;50103;47.960;21.712;2022-10-31T18:26:52;51.50;;;27.00;;
63926;SDS011;50103;47.960;21.712;2022-10-31T18:29:18;53.30;;;27.00;;
63926;SDS011;50103;47.960;21.712;2022-10-31T18:31:44;49.10;;;26.20;;
63926;SDS011;50103;47.960;21.712;2022-10-31T18:34:13;51.10;;;26.10;;
63926;SDS011;50103;47.960;21.712;2022-10-31T18:36:39;54.20;;;27.40;;
63926;SDS011;50103;47.960;21.712;2022-10-31T18:39:05;48.90;;;25.70;;
63926;SDS011;50103;47.960;21.712;2022-10-31T18:41:31;54.00;;;26.90;;
63926;SDS011;50103;47.960;21.712;2022-10-31T18:43:57;52.10;;;27.00;;
63926;SDS011;50103;47.960;21.712;2022-10-31T18:46:24;52.50;;;26.00;;
63926;SDS011;50103;47.960;21.712;2022-10-31T18:48:52;50.00;;;25.40;;
63926;SDS011;50103;47.960;21.712;2022-10-31T18:51:17;52.70;;;25.40;;
63926;SDS011;50103;47.960;21.712;2022-10-31T18:53:56;52.20;;;26.00;;
63926;SDS011;50103;47.960;21.712;2022-10-31T18:56:23;47.60;;;24.90;;
63926;SDS011;50103;47.960;21.712;2022-10-31T18:58:50;50.40;;;25.60;;
63926;SDS011;50103;47.960;21.712;2022-10-31T19:01:18;46.70;;;23.50;;
63926;SDS011;50103;47.960;21.712;2022-10-31T19:03:45;49.90;;;25.40;;
63926;SDS011;50103;47.960;21.712;2022-10-31T19:06:16;47.20;;;24.60;;
63926;SDS011;50103;47.960;21.712;2022-10-31T19:08:43;44.70;;;23.90;;
63926;SDS011;50103;47.960;21.712;2022-10-31T19:11:09;46.90;;;24.90;;
63926;SDS011;50103;47.960;21.712;2022-10-31T19:13:37;49.80;;;25.60;;
63926;SDS011;50103;47.960;21.712;2022-10-31T19:18:38;44.50;;;23.00;;
63926;SDS011;50103;47.960;21.712;2022-10-31T19:21:09;44.60;;;23.50;;
63926;SDS011;50103;47.960;21.712;2022-10-31T19:23:36;48.20;;;24.20;;
63926;SDS011;50103;47.960;21.712;2022-10-31T19:26:02;49.50;;;23.10;;
63926;SDS011;50103;47.960;21.712;2022-10-31T19:28:32;48.60;;;24.00;;
63926;SDS011;50103;47.960;21.712;2022-10-31T19:30:58;49.00;;;23.70;;
63926;SDS011;50103;47.960;21.712;2022-10-31T19:33:25;48.70;;;24.00;;
63926;SDS011;50103;47.960;21.712;2022-10-31T19:36:03;45.00;;;23.30;;
63926;SDS011;50103;47.960;21.712;2022-10-31T19:38:34;49.20;;;24.80;;
63926;SDS011;50103;47.960;21.712;2022-10-31T19:41:01;50.30;;;24.60;;
63926;SDS011;50103;47.960;21.712;2022-10-31T19:43:30;47.70;;;23.60;;
63926;SDS011;50103;47.960;21.712;2022-10-31T19:45:56;39.90;;;18.80;;
63926;SDS011;50103;47.960;21.712;2022-10-31T19:48:23;49.30;;;24.50;;
63926;SDS011;50103;47.960;21.712;2022-10-31T19:50:52;45.70;;;23.20;;
63926;SDS011;50103;47.960;21.712;2022-10-31T19:53:24;48.30;;;23.50;;
63926;SDS011;50103;47.960;21.712;2022-10-31T19:55:50;47.90;;;23.30;;
63926;SDS011;50103;47.960;21.712;2022-10-31T19:58:16;46.80;;;22.80;;
63926;SDS011;50103;47.960;21.712;2022-10-31T20:00:41;49.00;;;23.00;;
